Time;durP1;ratioP1;P1;durP2;ratioP2;P2;SDS_P1;SDS_P2;PMS_P1;PMS_P2;Temp;Humidity;BMP_temperature;BMP_pressure;BME280_temperature;BME280_humidity;BME280_pressure;Samples;Min_cycle;Max_cycle;Signal;HPM_P1;HPM_P2
2021/03/03 00:00:30;;;;;;;31.48;17.73;;;4.20;99.90;;;;;;5075156;28;20052;-71
2021/03/03 00:02:56;;;;;;;34.72;17.38;;;4.20;99.90;;;;;;5058377;28;20024;-71
2021/03/03 00:05:21;;;;;;;32.85;17.60;;;4.10;99.90;;;;;;5075162;28;20108;-71
2021/03/03 00:07:47;;;;;;;34.55;18.85;;;4.00;99.90;;;;;;5076386;28;20107;-71
2021/03/03 00:10:13;;;;;;;33.03;18.65;;;4.00;99.90;;;;;;5076404;28;20031;-70
2021/03/03 00:12:39;;;;;;;33.28;18.08;;;3.90;99.90;;;;;;5075885;28;20059;-71
2021/03/03 00:15:05;;;;;;;39.90;20.15;;;3.90;99.90;;;;;;5075909;28;20060;-70
2021/03/03 00:17:31;;;;;;;38.53;19.45;;;3.80;99.90;;;;;;5074622;28;20548;-71
2021/03/03 00:19:56;;;;;;;34.58;19.52;;;3.80;99.90;;;;;;5075565;28;20127;-70
2021/03/03 00:22:22;;;;;;;34.75;19.40;;;3.70;99.90;;;;;;5075979;28;20074;-70
2021/03/03 00:24:47;;;;;;;37.08;18.15;;;3.70;99.90;;;;;;5074704;28;20031;-70
2021/03/03 00:27:13;;;;;;;35.38;18.58;;;3.60;99.90;;;;;;5075878;28;20032;-70
2021/03/03 00:29:38;;;;;;;36.15;19.25;;;3.80;99.90;;;;;;5075811;28;20024;-70
2021/03/03 00:32:04;;;;;;;32.72;18.27;;;3.90;99.90;;;;;;5074035;28;20073;-70
2021/03/03 00:34:30;;;;;;;33.60;18.40;;;4.00;99.90;;;;;;5075777;28;20024;-70
2021/03/03 00:36:55;;;;;;;31.42;17.13;;;4.00;99.90;;;;;;5075623;28;20046;-70
2021/03/03 00:39:22;;;;;;;38.22;18.58;;;4.00;99.90;;;;;;5074483;28;20031;-71
2021/03/03 00:41:47;;;;;;;33.28;16.83;;;4.00;99.90;;;;;;5057145;28;20052;-71
2021/03/03 00:44:13;;;;;;;32.75;17.50;;;4.00;99.90;;;;;;5075811;28;20029;-71
2021/03/03 00:46:38;;;;;;;31.55;16.83;;;4.00;99.90;;;;;;5075485;28;20373;-70
2021/03/03 00:49:04;;;;;;;30.55;17.13;;;3.90;99.90;;;;;;5073676;28;20385;-71
2021/03/03 00:51:29;;;;;;;30.00;15.63;;;3.90;99.90;;;;;;5075148;28;20374;-71
2021/03/03 00:53:55;;;;;;;30.58;16.50;;;4.00;99.90;;;;;;5075343;28;20025;-71
2021/03/03 00:56:20;;;;;;;32.20;16.20;;;4.10;99.90;;;;;;5074127;28;20496;-71
2021/03/03 00:58:46;;;;;;;28.85;16.30;;;4.10;99.90;;;;;;5075240;28;20060;-71
2021/03/03 01:01:12;;;;;;;28.95;15.80;;;4.20;99.90;;;;;;5074837;28;20071;-71
2021/03/03 01:03:37;;;;;;;29.92;16.33;;;4.30;99.90;;;;;;5073278;28;20088;-71
2021/03/03 01:06:03;;;;;;;26.67;15.18;;;4.30;99.90;;;;;;5075123;28;20016;-71
2021/03/03 01:08:28;;;;;;;31.17;15.95;;;4.20;99.90;;;;;;5075031;28;20032;-71
2021/03/03 01:10:54;;;;;;;28.85;15.27;;;4.00;99.90;;;;;;5074448;28;20086;-71
2021/03/03 01:13:19;;;;;;;27.33;16.27;;;4.00;99.90;;;;;;5074964;28;20035;-71
2021/03/03 01:15:45;;;;;;;28.80;16.42;;;3.90;99.90;;;;;;5073447;28;20358;-71
2021/03/03 01:18:11;;;;;;;32.70;16.17;;;3.80;99.90;;;;;;5074316;28;20087;-71
2021/03/03 01:20:36;;;;;;;32.17;17.25;;;3.70;99.90;;;;;;5074021;28;20044;-71
2021/03/03 01:23:07;;;;;;;28.67;16.55;;;3.70;99.90;;;;;;5075167;28;20107;-71
2021/03/03 01:25:33;;;;;;;29.17;16.42;;;3.70;99.90;;;;;;5074184;28;20025;-71
2021/03/03 01:27:59;;;;;;;34.97;16.63;;;3.60;99.90;;;;;;5074408;28;20100;-71
2021/03/03 01:30:24;;;;;;;29.67;15.88;;;3.50;99.90;;;;;;5072814;28;20108;-71
2021/03/03 01:32:50;;;;;;;31.25;16.65;;;3.70;99.90;;;;;;5072797;28;20427;-72
2021/03/03 01:35:16;;;;;;;31.23;16.13;;;3.70;99.90;;;;;;5073321;28;20033;-72
2021/03/03 01:38:02;;;;;;;31.50;16.08;;;3.90;99.90;;;;;;5072805;28;20021;-70
2021/03/03 01:40:27;;;;;;;34.20;16.50;;;4.00;99.90;;;;;;5074114;28;20128;-70
2021/03/03 01:42:54;;;;;;;26.80;15.15;;;4.00;99.90;;;;;;5073427;28;20464;-71
2021/03/03 01:45:20;;;;;;;32.47;15.55;;;4.00;99.90;;;;;;5074422;28;20024;-70
2021/03/03 01:47:46;;;;;;;32.78;16.50;;;4.00;99.90;;;;;;5073157;28;20424;-70
2021/03/03 01:50:12;;;;;;;31.75;15.10;;;4.10;99.90;;;;;;5073662;28;20020;-70
2021/03/03 01:52:40;;;;;;;30.08;15.13;;;4.00;99.90;;;;;;5072828;28;20028;-70
2021/03/03 01:55:07;;;;;;;33.20;15.55;;;4.00;99.90;;;;;;5073683;28;20020;-70
2021/03/03 01:57:33;;;;;;;29.70;15.70;;;4.00;99.90;;;;;;5073989;28;20026;-70
2021/03/03 01:59:59;;;;;;;31.17;16.40;;;3.90;99.90;;;;;;5056044;28;20028;-70
2021/03/03 02:02:24;;;;;;;31.13;15.95;;;3.90;99.90;;;;;;5074142;28;20046;-70
2021/03/03 02:04:52;;;;;;;28.70;14.73;;;3.90;99.90;;;;;;5072982;28;20090;-70
2021/03/03 02:07:57;;;;;;;30.90;15.82;;;3.90;99.90;;;;;;5073840;28;20469;-70
2021/03/03 02:10:51;;;;;;;26.75;15.10;;;3.80;99.90;;;;;;5073412;28;20095;-70
2021/03/03 02:13:24;;;;;;;29.20;15.57;;;3.80;99.90;;;;;;5072412;28;20067;-70
2021/03/03 02:15:52;;;;;;;29.58;15.52;;;3.80;99.90;;;;;;5074023;28;20461;-70
2021/03/03 02:18:18;;;;;;;29.20;14.88;;;3.80;99.90;;;;;;5073995;28;20051;-70
2021/03/03 02:21:00;;;;;;;27.42;14.27;;;3.70;99.90;;;;;;5073391;28;20432;-70
2021/03/03 02:24:06;;;;;;;25.02;14.55;;;3.60;99.90;;;;;;5073653;28;20462;-71
2021/03/03 02:26:33;;;;;;;29.80;15.43;;;3.40;99.90;;;;;;5073153;28;20028;-70
2021/03/03 02:29:20;;;;;;;30.58;15.20;;;3.40;99.90;;;;;;5073910;28;20024;-71
2021/03/03 02:31:50;;;;;;;33.97;15.40;;;3.40;99.90;;;;;;5073848;28;20116;-70
2021/03/03 02:34:18;;;;;;;26.70;15.05;;;3.40;99.90;;;;;;5073880;28;20115;-70
2021/03/03 02:36:46;;;;;;;30.17;15.20;;;3.20;99.90;;;;;;5073326;28;20021;-70
2021/03/03 02:39:13;;;;;;;30.55;15.90;;;3.10;99.90;;;;;;5073795;28;20025;-70
2021/03/03 02:41:41;;;;;;;30.92;15.90;;;3.10;99.90;;;;;;5073710;28;20458;-70
2021/03/03 02:44:08;;;;;;;30.38;14.95;;;2.90;99.90;;;;;;5073433;28;20021;-70
2021/03/03 02:46:45;;;;;;;32.50;17.02;;;2.90;99.90;;;;;;5073205;28;20155;-71
2021/03/03 02:49:12;;;;;;;34.83;16.08;;;2.80;99.90;;;;;;5073128;28;20020;-71
2021/03/03 02:51:38;;;;;;;36.20;17.60;;;2.80;99.90;;;;;;5073379;28;20028;-70
2021/03/03 02:54:08;;;;;;;28.60;16.02;;;2.80;99.90;;;;;;5073138;28;20020;-71
2021/03/03 02:56:35;;;;;;;37.80;18.20;;;2.70;99.90;;;;;;5072525;28;20093;-71
2021/03/03 02:59:08;;;;;;;36.28;17.67;;;2.70;99.90;;;;;;5073329;28;20027;-71
2021/03/03 03:01:36;;;;;;;37.15;18.67;;;2.70;99.90;;;;;;5071731;28;20025;-70
2021/03/03 03:04:03;;;;;;;32.15;17.20;;;2.60;99.90;;;;;;5076791;28;20032;-71
2021/03/03 03:06:35;;;;;;;33.75;17.70;;;2.60;99.90;;;;;;5077401;28;20350;-70
2021/03/03 03:09:06;;;;;;;34.10;17.25;;;2.60;99.90;;;;;;5075554;28;20021;-71
2021/03/03 03:11:35;;;;;;;31.33;16.98;;;2.50;99.90;;;;;;5077295;28;20024;-70
2021/03/03 03:14:06;;;;;;;33.53;16.67;;;2.50;99.90;;;;;;5076962;28;20029;-70
2021/03/03 03:16:33;;;;;;;35.17;17.33;;;2.40;99.90;;;;;;5077203;28;20143;-71
2021/03/03 03:19:01;;;;;;;33.80;17.75;;;2.30;99.90;;;;;;5075326;28;20028;-70
2021/03/03 03:21:29;;;;;;;37.08;17.83;;;2.30;99.90;;;;;;5076340;28;20045;-71
2021/03/03 03:23:56;;;;;;;41.30;17.85;;;2.40;99.90;;;;;;5077062;28;20024;-70
2021/03/03 03:26:23;;;;;;;33.30;16.08;;;2.50;99.90;;;;;;5076426;28;20024;-70
2021/03/03 03:28:49;;;;;;;37.78;16.60;;;2.60;99.90;;;;;;5076673;28;20020;-70
2021/03/03 03:31:17;;;;;;;31.38;16.35;;;2.50;99.90;;;;;;5076897;28;20115;-71
2021/03/03 03:33:42;;;;;;;29.52;16.65;;;2.50;99.90;;;;;;5076867;28;20029;-70
2021/03/03 03:36:11;;;;;;;34.28;16.55;;;2.40;99.90;;;;;;5076857;28;20036;-70
2021/03/03 03:38:37;;;;;;;30.60;16.13;;;2.40;99.90;;;;;;5076254;28;20469;-71
2021/03/03 03:41:05;;;;;;;31.70;15.90;;;2.40;99.90;;;;;;5076678;28;20031;-70
2021/03/03 03:43:33;;;;;;;32.03;16.13;;;2.40;99.90;;;;;;5076462;28;20049;-70
2021/03/03 03:46:00;;;;;;;31.67;16.15;;;2.40;99.90;;;;;;5076641;28;20044;-71
2021/03/03 03:48:28;;;;;;;39.42;17.15;;;2.40;99.90;;;;;;5076617;28;20032;-70
2021/03/03 03:50:55;;;;;;;32.35;17.92;;;2.50;99.90;;;;;;5074827;28;20470;-71
2021/03/03 03:53:21;;;;;;;39.42;16.73;;;2.60;99.90;;;;;;5076236;28;20056;-70
2021/03/03 03:55:47;;;;;;;28.92;16.63;;;2.50;99.90;;;;;;5076464;28;20523;-71
2021/03/03 03:58:12;;;;;;;31.73;16.23;;;2.50;99.90;;;;;;5074957;28;20032;-71
2021/03/03 04:00:39;;;;;;;34.58;19.13;;;2.50;99.90;;;;;;5076116;28;20462;-70
2021/03/03 04:03:05;;;;;;;31.80;16.83;;;2.60;99.90;;;;;;5076412;28;20024;-70
2021/03/03 04:05:31;;;;;;;37.83;17.30;;;2.60;99.90;;;;;;5076127;28;20029;-70
2021/03/03 04:07:56;;;;;;;36.08;17.05;;;2.60;99.90;;;;;;5076343;28;20034;-71
2021/03/03 04:10:25;;;;;;;36.67;16.83;;;2.70;99.90;;;;;;5076001;28;20546;-71
2021/03/03 04:12:51;;;;;;;31.00;16.92;;;2.70;99.90;;;;;;5076097;28;20415;-71
2021/03/03 04:15:17;;;;;;;33.90;16.42;;;2.80;99.90;;;;;;5075466;28;20100;-71
2021/03/03 04:17:43;;;;;;;35.42;17.65;;;2.80;99.90;;;;;;5076157;28;20048;-71
2021/03/03 04:20:10;;;;;;;30.35;16.70;;;2.80;99.90;;;;;;5075363;28;20083;-71
2021/03/03 04:22:36;;;;;;;32.53;16.80;;;2.90;99.90;;;;;;5074225;28;20021;-71
2021/03/03 04:25:04;;;;;;;33.92;16.50;;;2.90;99.90;;;;;;5076036;28;20369;-71
2021/03/03 04:27:30;;;;;;;31.10;16.77;;;2.90;99.90;;;;;;5074545;28;20017;-71
2021/03/03 04:29:55;;;;;;;31.20;15.77;;;2.90;99.90;;;;;;5075352;28;20024;-71
2021/03/03 04:32:21;;;;;;;32.13;15.00;;;2.90;99.90;;;;;;5075845;28;20021;-71
2021/03/03 04:34:46;;;;;;;27.77;15.63;;;2.80;99.90;;;;;;5075527;28;20071;-71
2021/03/03 04:37:12;;;;;;;35.35;16.25;;;2.60;99.90;;;;;;5075800;28;20471;-71
2021/03/03 04:39:38;;;;;;;37.40;17.10;;;2.50;99.90;;;;;;5075164;28;20029;-71
2021/03/03 04:42:04;;;;;;;27.55;16.73;;;2.40;99.90;;;;;;5075334;28;20032;-70
2021/03/03 04:44:59;;;;;;;32.15;16.42;;;2.40;99.90;;;;;;5075364;28;20062;-71
2021/03/03 04:47:24;;;;;;;30.58;17.30;;;2.30;99.90;;;;;;5075261;28;20025;-71
2021/03/03 04:49:50;;;;;;;35.28;16.13;;;2.20;99.90;;;;;;5075492;28;20048;-71
2021/03/03 04:52:15;;;;;;;34.90;16.73;;;2.20;99.90;;;;;;5075174;28;20017;-71
2021/03/03 04:54:41;;;;;;;41.70;18.70;;;2.10;99.90;;;;;;5073960;28;20025;-70
2021/03/03 04:57:07;;;;;;;31.63;16.02;;;2.10;99.90;;;;;;5075336;28;20428;-70
2021/03/03 04:59:32;;;;;;;29.60;15.85;;;2.10;99.90;;;;;;5075290;28;20029;-70
2021/03/03 05:01:58;;;;;;;35.97;16.40;;;2.10;99.90;;;;;;5073804;28;20068;-71
2021/03/03 05:04:24;;;;;;;33.63;17.73;;;2.10;99.90;;;;;;5056831;28;20112;-71
2021/03/03 05:06:50;;;;;;;31.38;17.42;;;2.10;99.90;;;;;;5075135;28;20039;-70
2021/03/03 05:09:16;;;;;;;36.72;18.15;;;2.20;99.90;;;;;;5073890;28;20373;-70
2021/03/03 05:11:42;;;;;;;30.50;16.25;;;2.20;99.90;;;;;;5075051;28;20039;-71
2021/03/03 05:14:08;;;;;;;32.10;15.40;;;2.10;99.90;;;;;;5073553;28;20032;-71
2021/03/03 05:16:34;;;;;;;30.05;16.77;;;2.10;99.90;;;;;;5074965;28;20020;-71
2021/03/03 05:18:59;;;;;;;33.25;16.13;;;2.10;99.90;;;;;;5074632;28;20054;-70
2021/03/03 05:21:25;;;;;;;34.60;17.33;;;2.10;99.90;;;;;;5074113;28;20049;-70
2021/03/03 05:23:50;;;;;;;30.00;16.00;;;2.10;99.90;;;;;;5074780;28;20043;-71
2021/03/03 05:26:16;;;;;;;32.33;17.33;;;2.10;99.90;;;;;;5072614;28;20021;-70
2021/03/03 05:28:44;;;;;;;36.00;17.08;;;2.10;99.90;;;;;;5073304;28;20016;-70
2021/03/03 05:31:10;;;;;;;33.65;17.10;;;2.00;99.90;;;;;;5074669;28;20017;-70
2021/03/03 05:33:36;;;;;;;33.90;17.27;;;2.00;99.90;;;;;;5074552;28;20434;-70
2021/03/03 05:36:05;;;;;;;30.88;17.50;;;2.00;99.90;;;;;;5072883;28;20137;-70
2021/03/03 05:38:32;;;;;;;36.03;17.30;;;2.00;99.90;;;;;;5056093;28;20030;-70
2021/03/03 05:40:58;;;;;;;37.53;17.67;;;2.00;99.90;;;;;;5074153;28;20021;-70
2021/03/03 05:43:24;;;;;;;28.45;16.15;;;2.00;99.90;;;;;;5074200;28;20028;-70
2021/03/03 05:45:51;;;;;;;32.35;16.83;;;2.00;99.90;;;;;;5072605;28;20492;-70
2021/03/03 05:48:26;;;;;;;34.10;16.48;;;2.00;99.90;;;;;;5074116;28;20013;-71
2021/03/03 05:51:04;;;;;;;53.22;18.25;;;2.00;99.90;;;;;;5072881;28;20020;-71
2021/03/03 05:53:31;;;;;;;43.88;17.63;;;2.00;99.90;;;;;;5074008;28;20377;-71
2021/03/03 05:56:28;;;;;;;34.05;17.08;;;2.00;99.90;;;;;;5072869;28;20025;-71
2021/03/03 05:59:09;;;;;;;33.60;16.42;;;2.00;99.90;;;;;;5074014;28;20036;-70
2021/03/03 06:01:35;;;;;;;40.80;18.35;;;2.00;99.90;;;;;;5056938;28;20481;-70
2021/03/03 06:04:00;;;;;;;35.13;16.98;;;2.00;99.90;;;;;;5039651;28;20108;-71
2021/03/03 06:06:26;;;;;;;40.15;17.92;;;2.10;99.90;;;;;;5072968;28;20024;-71
2021/03/03 06:08:52;;;;;;;38.03;17.02;;;2.10;99.90;;;;;;5073804;28;20369;-70
2021/03/03 06:11:18;;;;;;;39.03;17.92;;;2.20;99.90;;;;;;5072670;28;20028;-70
2021/03/03 06:13:44;;;;;;;36.33;17.25;;;2.20;99.90;;;;;;5074111;28;20048;-70
2021/03/03 06:16:10;;;;;;;34.10;16.33;;;2.20;99.90;;;;;;5074078;28;20036;-70
2021/03/03 06:18:36;;;;;;;33.92;18.50;;;2.20;99.90;;;;;;5072415;28;20028;-70
2021/03/03 06:21:01;;;;;;;34.85;16.48;;;2.30;99.90;;;;;;5073035;28;20090;-71
2021/03/03 06:23:29;;;;;;;35.42;16.15;;;2.30;99.90;;;;;;5073846;28;20017;-71
2021/03/03 06:28:42;;;;;;;34.25;16.90;;;2.40;99.90;;;;;;5112289;27;20350;-71
2021/03/03 06:31:30;;;;;;;42.08;16.95;;;2.50;99.90;;;;;;5111701;28;20032;-71
2021/03/03 06:34:15;;;;;;;45.63;17.17;;;2.60;99.90;;;;;;5093116;28;20024;-71
2021/03/03 06:36:43;;;;;;;78.07;21.10;;;2.70;99.90;;;;;;5093320;28;20024;-71
2021/03/03 06:41:56;;;;;;;45.10;17.55;;;2.70;99.90;;;;;;5112355;27;20355;-71
2021/03/03 06:44:23;;;;;;;41.70;18.70;;;2.70;99.90;;;;;;5110134;28;20384;-71
2021/03/03 06:47:09;;;;;;;56.38;18.83;;;2.80;99.90;;;;;;5111944;28;20413;-71
2021/03/03 06:49:34;;;;;;;41.95;18.20;;;2.90;99.90;;;;;;5111205;28;20031;-71
2021/03/03 06:52:00;;;;;;;48.88;18.30;;;2.90;99.90;;;;;;5109921;28;20020;-71
2021/03/03 06:54:26;;;;;;;50.55;18.05;;;2.90;99.90;;;;;;5110127;28;20495;-71
2021/03/03 06:56:56;;;;;;;43.25;17.90;;;3.00;99.90;;;;;;5111032;28;20020;-71
2021/03/03 06:59:41;;;;;;;49.38;17.00;;;3.00;99.90;;;;;;5093249;28;20095;-71
2021/03/03 07:02:10;;;;;;;37.33;15.93;;;3.10;99.90;;;;;;5110220;28;20028;-72
2021/03/03 07:04:38;;;;;;;38.92;15.70;;;3.30;99.90;;;;;;5092508;28;20476;-72
2021/03/03 07:07:19;;;;;;;37.55;16.92;;;3.40;99.90;;;;;;5111309;28;20461;-72
2021/03/03 07:12:30;;;;;;;31.73;14.85;;;3.70;99.90;;;;;;5112107;27;20347;-71
2021/03/03 07:15:00;;;;;;;35.20;16.35;;;3.90;99.90;;;;;;5111809;28;20043;-71
2021/03/03 07:17:34;;;;;;;39.10;16.73;;;4.00;99.90;;;;;;5110353;28;20390;-71
2021/03/03 07:20:03;;;;;;;33.00;16.13;;;4.10;99.90;;;;;;5111629;28;20020;-71
2021/03/03 07:22:32;;;;;;;58.85;17.15;;;4.30;99.90;;;;;;5109746;28;20448;-70
2021/03/03 07:25:05;;;;;;;40.92;17.00;;;4.40;99.90;;;;;;5111539;28;20026;-71
2021/03/03 07:27:31;;;;;;;44.75;17.23;;;4.50;99.90;;;;;;5109715;28;20039;-71
2021/03/03 07:30:00;;;;;;;47.53;17.00;;;4.60;99.90;;;;;;5109722;28;20115;-70
2021/03/03 07:32:26;;;;;;;105.40;21.50;;;4.70;99.90;;;;;;5110954;28;20019;-72
2021/03/03 07:34:55;;;;;;;117.43;22.70;;;4.90;99.90;;;;;;5111075;28;20020;-72
2021/03/03 07:37:23;;;;;;;127.68;22.33;;;5.10;99.90;;;;;;5092448;28;20077;-72
2021/03/03 07:39:56;;;;;;;128.70;22.83;;;5.30;99.90;;;;;;5092915;28;20119;-72
2021/03/03 07:42:26;;;;;;;111.73;23.90;;;5.40;99.90;;;;;;5110881;28;20088;-72
2021/03/03 07:44:55;;;;;;;121.90;22.80;;;5.50;99.90;;;;;;5110368;28;20022;-70
2021/03/03 07:47:28;;;;;;;95.57;20.15;;;5.60;99.90;;;;;;5108322;28;20492;-71
2021/03/03 07:49:58;;;;;;;82.57;20.63;;;5.60;99.90;;;;;;5109031;28;20035;-72
2021/03/03 07:52:24;;;;;;;75.30;19.13;;;5.70;99.90;;;;;;5092438;28;20028;-71
2021/03/03 07:54:50;;;;;;;78.28;19.08;;;5.80;99.90;;;;;;5087226;28;20030;-71
2021/03/03 07:57:17;;;;;;;58.42;22.35;;;5.90;99.90;;;;;;5108543;28;20073;-71
2021/03/03 07:59:43;;;;;;;67.68;20.95;;;6.00;99.90;;;;;;5092053;28;20388;-72
2021/03/03 08:02:10;;;;;;;75.50;22.38;;;6.10;99.90;;;;;;5108937;28;20038;-71
2021/03/03 08:04:41;;;;;;;86.82;22.38;;;6.10;99.90;;;;;;5110147;28;20032;-71
2021/03/03 08:07:24;;;;;;;50.67;18.50;;;6.30;99.90;;;;;;5109817;28;20027;-71
2021/03/03 08:10:19;;;;;;;60.80;18.38;;;6.50;99.90;;;;;;5108220;28;20071;-71
2021/03/03 08:13:03;;;;;;;35.90;16.83;;;7.20;99.90;;;;;;5108647;28;20039;-71
2021/03/03 08:15:32;;;;;;;29.42;15.63;;;8.10;99.90;;;;;;5108051;28;20363;-71
2021/03/03 08:18:18;;;;;;;37.35;16.08;;;9.10;99.90;;;;;;5109313;28;20058;-72
2021/03/03 08:20:48;;;;;;;29.85;15.98;;;9.90;99.90;;;;;;5108387;28;20070;-72
2021/03/03 08:29:13;;;;;;;28.13;14.90;;;10.50;99.90;;;;;;5110354;27;20359;-71
2021/03/03 08:31:40;;;;;;;33.00;16.63;;;9.90;99.90;;;;;;5110835;28;20020;-69
2021/03/03 08:34:07;;;;;;;33.03;17.50;;;9.90;99.90;;;;;;5109428;28;20024;-70
2021/03/03 08:41:47;;;;;;;36.00;18.90;;;9.90;99.90;;;;;;5109990;27;20398;-72
2021/03/03 08:44:15;;;;;;;40.63;17.80;;;9.50;99.90;;;;;;5110851;28;20753;-72
2021/03/03 08:46:46;;;;;;;40.40;17.00;;;9.60;99.90;;;;;;5110334;28;20027;-70
2021/03/03 08:51:49;;;;;;;30.85;15.73;;;9.60;99.90;;;;;;5111267;27;20115;-71
2021/03/03 08:54:19;;;;;;;28.85;15.88;;;9.90;99.90;;;;;;5109823;28;20028;-72
2021/03/03 08:56:49;;;;;;;28.58;15.13;;;10.40;99.90;;;;;;5108684;28;20472;-71
2021/03/03 09:02:15;;;;;;;55.60;17.75;;;10.90;99.90;;;;;;5103658;27;20417;-71
2021/03/03 09:04:43;;;;;;;38.45;16.70;;;10.90;99.90;;;;;;5090390;28;20469;-71
2021/03/03 09:07:15;;;;;;;67.43;18.50;;;11.10;99.90;;;;;;5088899;28;20051;-71
2021/03/03 09:09:48;;;;;;;45.95;17.40;;;11.20;99.90;;;;;;5089903;28;20462;-71
2021/03/03 09:12:16;;;;;;;43.10;18.42;;;11.70;99.90;;;;;;5089721;28;20047;-71
2021/03/03 09:14:44;;;;;;;37.10;16.88;;;12.40;99.90;;;;;;5090579;28;20358;-72
2021/03/03 09:17:13;;;;;;;43.72;17.75;;;13.30;99.90;;;;;;5090477;28;20024;-72
2021/03/03 09:19:39;;;;;;;32.95;16.95;;;13.60;99.90;;;;;;5090861;28;20052;-72
2021/03/03 09:22:22;;;;;;;39.83;17.05;;;14.00;99.90;;;;;;5089914;28;20570;-72
2021/03/03 09:24:49;;;;;;;41.90;17.42;;;14.20;99.90;;;;;;5070095;28;20032;-72
2021/03/03 09:27:15;;;;;;;39.50;18.95;;;14.50;99.90;;;;;;5100575;28;20032;-75
2021/03/03 09:29:42;;;;;;;36.80;18.65;;;14.80;99.90;;;;;;5086293;28;20154;-73
2021/03/03 09:32:12;;;;;;;41.92;18.40;;;14.80;99.90;;;;;;5086966;28;20021;-74
2021/03/03 09:35:02;;;;;;;50.22;19.33;;;15.10;99.90;;;;;;5087202;28;20027;-74
2021/03/03 09:37:36;;;;;;;41.08;18.65;;;15.10;99.90;;;;;;5088837;28;20024;-74
2021/03/03 09:40:03;;;;;;;39.63;18.20;;;14.20;99.90;;;;;;5089631;28;20381;-74
2021/03/03 09:42:38;;;;;;;40.75;18.10;;;13.80;99.90;;;;;;5089233;28;20444;-74
2021/03/03 09:45:05;;;;;;;41.05;17.38;;;13.60;99.90;;;;;;5087136;28;20028;-74
2021/03/03 09:47:36;;;;;;;37.70;18.20;;;13.30;99.90;;;;;;5087806;28;20054;-73
2021/03/03 09:50:11;;;;;;;43.25;18.45;;;13.20;99.90;;;;;;5087741;28;20161;-74
2021/03/03 09:52:42;;;;;;;38.17;17.35;;;13.10;99.90;;;;;;5088901;28;20031;-74
2021/03/03 09:55:12;;;;;;;37.83;18.38;;;13.00;99.90;;;;;;5089573;28;20020;-74
2021/03/03 09:57:38;;;;;;;37.72;17.80;;;12.90;99.90;;;;;;5087433;28;20100;-74
2021/03/03 10:00:09;;;;;;;42.97;18.67;;;13.00;99.90;;;;;;5087991;28;20017;-74
2021/03/03 10:02:37;;;;;;;41.67;17.52;;;12.90;99.90;;;;;;5088545;28;20065;-74
2021/03/03 10:05:03;;;;;;;38.40;18.02;;;12.80;99.90;;;;;;5088429;28;20373;-74
2021/03/03 10:07:29;;;;;;;40.40;17.23;;;12.90;99.90;;;;;;5088166;28;20104;-74
2021/03/03 10:09:57;;;;;;;45.92;17.15;;;13.10;99.90;;;;;;5087886;28;20494;-73
2021/03/03 10:12:25;;;;;;;40.40;17.73;;;13.00;99.90;;;;;;5081937;28;20067;-73
2021/03/03 10:15:02;;;;;;;39.70;18.23;;;13.10;99.90;;;;;;5076313;28;20365;-73
2021/03/03 10:17:33;;;;;;;36.33;19.25;;;13.20;99.90;;;;;;5074707;28;20017;-74
2021/03/03 10:20:00;;;;;;;36.97;18.58;;;13.20;99.90;;;;;;5074058;28;20385;-73
2021/03/03 10:22:27;;;;;;;43.65;18.50;;;13.40;99.90;;;;;;5075741;28;20020;-72
2021/03/03 10:24:57;;;;;;;44.85;18.83;;;13.50;99.90;;;;;;5075303;28;20040;-73
2021/03/03 10:27:23;;;;;;;39.33;19.42;;;13.60;99.90;;;;;;5075113;28;20074;-73
2021/03/03 10:29:48;;;;;;;38.10;18.40;;;13.90;99.90;;;;;;5074463;28;20024;-72
2021/03/03 10:32:15;;;;;;;37.15;18.35;;;14.10;99.90;;;;;;5074662;28;20112;-73
2021/03/03 10:34:41;;;;;;;42.15;19.52;;;14.10;99.90;;;;;;5075017;28;20021;-73
2021/03/03 10:37:07;;;;;;;36.92;18.35;;;14.20;99.90;;;;;;5064046;28;20032;-73
2021/03/03 10:39:34;;;;;;;44.22;19.27;;;14.30;99.90;;;;;;5074394;28;20373;-73
2021/03/03 10:42:02;;;;;;;46.40;19.90;;;14.50;99.90;;;;;;5073659;28;20032;-73
2021/03/03 10:44:49;;;;;;;50.72;18.85;;;14.60;99.90;;;;;;5074128;28;20073;-72
2021/03/03 10:47:15;;;;;;;43.63;19.13;;;14.60;99.90;;;;;;5074166;28;20021;-72
2021/03/03 10:49:40;;;;;;;41.28;19.13;;;14.70;99.90;;;;;;5073043;28;20024;-73
2021/03/03 10:52:21;;;;;;;37.25;18.77;;;14.70;99.90;;;;;;5074239;28;20039;-73
2021/03/03 10:54:46;;;;;;;44.35;18.25;;;14.90;99.90;;;;;;5074776;28;20028;-72
2021/03/03 10:57:12;;;;;;;43.55;19.98;;;15.00;99.90;;;;;;5073438;28;20039;-73
2021/03/03 10:59:38;;;;;;;55.65;20.05;;;15.60;99.90;;;;;;5074508;28;20032;-75
2021/03/03 11:02:05;;;;;;;44.60;20.17;;;16.60;99.90;;;;;;5074907;28;20037;-73
2021/03/03 11:04:47;;;;;;;39.75;19.95;;;17.30;97.50;;;;;;5074988;28;20074;-73
2021/03/03 11:07:16;;;;;;;34.13;18.70;;;17.80;95.50;;;;;;5057205;28;20074;-74
2021/03/03 11:09:50;;;;;;;46.83;21.08;;;17.70;94.90;;;;;;5074821;28;20055;-72
2021/03/03 11:12:22;;;;;;;42.83;22.02;;;17.80;93.20;;;;;;5074184;28;20116;-72
2021/03/03 11:14:48;;;;;;;40.08;20.17;;;17.80;93.20;;;;;;5074118;28;20046;-73
2021/03/03 11:17:13;;;;;;;42.13;19.90;;;17.80;94.10;;;;;;5073205;28;20024;-73
2021/03/03 11:19:39;;;;;;;43.75;21.83;;;18.20;92.60;;;;;;5073235;28;20028;-71
2021/03/03 11:22:05;;;;;;;41.58;19.50;;;18.30;92.50;;;;;;5074600;28;20089;-71
2021/03/03 11:24:30;;;;;;;35.88;19.20;;;18.20;92.20;;;;;;5070528;28;20021;-71
2021/03/03 11:26:56;;;;;;;38.17;21.27;;;17.90;93.10;;;;;;5073998;28;20056;-71
2021/03/03 11:29:22;;;;;;;40.85;21.40;;;17.60;94.20;;;;;;5073981;28;20032;-71
2021/03/03 11:31:47;;;;;;;45.30;21.80;;;17.30;95.70;;;;;;5074279;28;20035;-71
2021/03/03 11:34:13;;;;;;;47.95;23.58;;;17.00;97.30;;;;;;5056573;28;20028;-72
2021/03/03 11:36:39;;;;;;;50.33;23.33;;;17.20;97.30;;;;;;5073833;28;20063;-72
2021/03/03 11:39:06;;;;;;;46.92;23.85;;;17.40;98.10;;;;;;5074508;28;20131;-71
2021/03/03 11:41:32;;;;;;;38.85;23.10;;;17.60;96.90;;;;;;5073661;28;20027;-71
2021/03/03 11:43:58;;;;;;;48.47;24.63;;;17.50;98.10;;;;;;5074231;28;20016;-71
2021/03/03 11:46:23;;;;;;;53.30;26.00;;;17.40;97.30;;;;;;5074223;28;20021;-71
2021/03/03 11:48:49;;;;;;;51.58;27.10;;;17.40;97.40;;;;;;5072677;28;20051;-72
2021/03/03 11:51:15;;;;;;;55.33;26.35;;;17.40;97.60;;;;;;5073921;28;20032;-71
2021/03/03 11:53:41;;;;;;;52.40;26.52;;;17.50;98.20;;;;;;5072927;28;20029;-71
2021/03/03 11:56:06;;;;;;;63.42;30.95;;;17.40;99.30;;;;;;5073827;28;20496;-70
2021/03/03 11:58:32;;;;;;;64.85;32.28;;;17.30;98.70;;;;;;5073602;28;20080;-70
2021/03/03 12:00:58;;;;;;;65.20;33.65;;;17.20;98.60;;;;;;5072423;28;20033;-70
2021/03/03 12:03:24;;;;;;;63.20;32.83;;;16.90;99.90;;;;;;5072135;28;20047;-71
2021/03/03 12:05:49;;;;;;;59.00;30.60;;;17.00;99.90;;;;;;5072908;28;20029;-71
2021/03/03 12:08:15;;;;;;;57.53;31.40;;;17.00;99.90;;;;;;5071836;28;20036;-71
2021/03/03 12:10:40;;;;;;;64.20;33.03;;;17.20;99.90;;;;;;5073369;28;20025;-71
2021/03/03 12:13:06;;;;;;;61.38;32.40;;;17.10;99.70;;;;;;5071082;28;20025;-70
2021/03/03 12:15:32;;;;;;;56.42;31.02;;;17.10;99.90;;;;;;5073201;28;20036;-70
2021/03/03 12:17:58;;;;;;;65.28;31.90;;;17.00;99.90;;;;;;5073002;28;20035;-70
2021/03/03 12:20:27;;;;;;;64.43;32.58;;;17.00;99.90;;;;;;5053044;28;20401;-70
2021/03/03 12:22:54;;;;;;;61.42;31.27;;;16.70;99.90;;;;;;5072033;28;20024;-71
2021/03/03 12:25:19;;;;;;;60.63;31.13;;;17.00;99.90;;;;;;5073696;28;20484;-72
2021/03/03 12:27:45;;;;;;;59.78;30.52;;;17.20;99.90;;;;;;5071886;28;20070;-71
2021/03/03 12:30:12;;;;;;;59.00;32.45;;;17.30;99.90;;;;;;5076419;28;20027;-71
2021/03/03 12:32:38;;;;;;;61.80;33.22;;;17.30;99.90;;;;;;5086934;28;20028;-71
2021/03/03 12:35:04;;;;;;;58.03;31.13;;;17.30;99.90;;;;;;5072797;28;20032;-70
2021/03/03 12:37:30;;;;;;;58.85;30.98;;;17.00;99.90;;;;;;5072873;28;20020;-70
2021/03/03 12:39:55;;;;;;;63.20;31.75;;;17.20;99.90;;;;;;5072997;28;20388;-71
2021/03/03 12:42:21;;;;;;;64.07;31.88;;;17.20;99.90;;;;;;5071112;28;20035;-71
2021/03/03 12:44:47;;;;;;;57.42;30.55;;;17.10;99.90;;;;;;5072866;28;20113;-71
2021/03/03 12:47:12;;;;;;;56.85;30.88;;;17.10;99.90;;;;;;5072799;28;20043;-71
2021/03/03 12:49:38;;;;;;;54.58;30.13;;;17.30;99.90;;;;;;5073210;28;20028;-71
2021/03/03 12:52:04;;;;;;;52.28;30.20;;;17.40;99.90;;;;;;5072382;28;20539;-71
2021/03/03 12:54:30;;;;;;;60.78;31.15;;;17.30;99.70;;;;;;5072532;28;20033;-70
2021/03/03 12:56:56;;;;;;;60.03;31.13;;;17.20;99.90;;;;;;5072624;28;20385;-71
2021/03/03 12:59:21;;;;;;;59.28;31.67;;;17.20;99.90;;;;;;5072915;28;20033;-69
2021/03/03 13:01:47;;;;;;;54.55;30.48;;;17.10;99.90;;;;;;5072703;28;20393;-71
2021/03/03 13:04:13;;;;;;;58.65;30.15;;;16.90;99.90;;;;;;5072752;28;20078;-71